CCA4004 ZSPD-ZBAA
Flight info
| Callsign | CCA4004 |
|---|---|
| Flight time | N/A |
| Altitude | 32100 |
| Route | PIK82D PIKAS G330 PIMOL A593 OMUDI/K0863S1040 A593 DALIM W157 BEKDO/K0863S1010 W157 AVBOX AVBOX6J |
| Aircraft | A320/M-SABDE3FGHIRWY/LB1 |
Departure
| Time | 2026-04-30 14:12 |
|---|---|
| Airport | Shanghai Pudong International Airport (ZSPD) |
Arrival
| Time | N/A |
|---|---|
| Airport | Beijing Capital International Airport (ZBAA) |
| Time | Latitude | Longitude | Altitude | Speed | Heading |
|---|---|---|---|---|---|
| 2026-04-30 13:32 | 31.13542 | 121.80255 | 23 ft | 0 kts | 72° |
| 2026-04-30 13:51 | 31.13542 | 121.80254 | 23 ft | 2 kts | 72° |
| 2026-04-30 13:51 | 31.13537 | 121.80236 | 25 ft | 2 kts | 72° |
| 2026-04-30 13:52 | 31.13516 | 121.80160 | 24 ft | 2 kts | 72° |
| 2026-04-30 13:53 | 31.13514 | 121.80140 | 23 ft | 2 kts | 138° |
| 2026-04-30 13:53 | 31.13516 | 121.80136 | 23 ft | 0 kts | 169° |
| 2026-04-30 13:55 | 31.13514 | 121.80137 | 23 ft | 2 kts | 167° |
| 2026-04-30 13:56 | 31.13484 | 121.80149 | 23 ft | 7 kts | 161° |
| 2026-04-30 13:56 | 31.13423 | 121.80174 | 24 ft | 12 kts | 161° |
| 2026-04-30 13:56 | 31.13331 | 121.80208 | 23 ft | 15 kts | 162° |
| 2026-04-30 13:56 | 31.13271 | 121.80231 | 23 ft | 0 kts | 162° |
| 2026-04-30 13:57 | 31.13267 | 121.80232 | 23 ft | 2 kts | 162° |
| 2026-04-30 13:57 | 31.13235 | 121.80244 | 24 ft | 7 kts | 162° |
| 2026-04-30 13:58 | 31.13169 | 121.80269 | 23 ft | 12 kts | 162° |
| 2026-04-30 13:58 | 31.12946 | 121.80353 | 23 ft | 21 kts | 162° |
| 2026-04-30 13:58 | 31.12800 | 121.80412 | 23 ft | 23 kts | 149° |
| 2026-04-30 13:59 | 31.12805 | 121.80571 | 23 ft | 22 kts | 72° |
| 2026-04-30 13:59 | 31.12853 | 121.80746 | 23 ft | 23 kts | 71° |
| 2026-04-30 13:59 | 31.12904 | 121.80928 | 25 ft | 24 kts | 72° |
| 2026-04-30 13:59 | 31.12959 | 121.81118 | 25 ft | 25 kts | 73° |
| 2026-04-30 14:00 | 31.13013 | 121.81315 | 23 ft | 26 kts | 71° |
| 2026-04-30 14:00 | 31.13128 | 121.81731 | 23 ft | 28 kts | 72° |
| 2026-04-30 14:00 | 31.13159 | 121.81924 | 22 ft | 23 kts | 72° |
| 2026-04-30 14:01 | 31.13290 | 121.81938 | 22 ft | 21 kts | 341° |
| 2026-04-30 14:01 | 31.13431 | 121.81884 | 23 ft | 22 kts | 342° |
| 2026-04-30 14:01 | 31.13532 | 121.81847 | 23 ft | 23 kts | 342° |
| 2026-04-30 14:01 | 31.13740 | 121.81767 | 23 ft | 24 kts | 342° |
| 2026-04-30 14:02 | 31.13847 | 121.81728 | 24 ft | 25 kts | 343° |
| 2026-04-30 14:02 | 31.14013 | 121.81666 | 23 ft | 26 kts | 342° |
| 2026-04-30 14:02 | 31.14185 | 121.81600 | 23 ft | 27 kts | 340° |
| 2026-04-30 14:02 | 31.14364 | 121.81533 | 23 ft | 27 kts | 342° |
| 2026-04-30 14:03 | 31.14548 | 121.81463 | 22 ft | 28 kts | 341° |
| 2026-04-30 14:03 | 31.14731 | 121.81392 | 23 ft | 23 kts | 342° |
| 2026-04-30 14:03 | 31.14837 | 121.81354 | 23 ft | 13 kts | 343° |
| 2026-04-30 14:03 | 31.14918 | 121.81323 | 23 ft | 11 kts | 341° |
| 2026-04-30 14:04 | 31.14986 | 121.81298 | 24 ft | 9 kts | 342° |
| 2026-04-30 14:04 | 31.15044 | 121.81276 | 23 ft | 9 kts | 342° |
| 2026-04-30 14:04 | 31.15115 | 121.81250 | 23 ft | 12 kts | 342° |
| 2026-04-30 14:04 | 31.15191 | 121.81221 | 22 ft | 11 kts | 342° |
| 2026-04-30 14:05 | 31.15257 | 121.81196 | 22 ft | 10 kts | 342° |
| 2026-04-30 14:05 | 31.15329 | 121.81168 | 24 ft | 13 kts | 341° |
| 2026-04-30 14:05 | 31.15422 | 121.81131 | 22 ft | 15 kts | 341° |
| 2026-04-30 14:05 | 31.15518 | 121.81096 | 22 ft | 14 kts | 343° |
| 2026-04-30 14:06 | 31.15602 | 121.81065 | 24 ft | 12 kts | 342° |
| 2026-04-30 14:06 | 31.15733 | 121.81017 | 24 ft | 9 kts | 342° |
| 2026-04-30 14:07 | 31.15839 | 121.81016 | 22 ft | 6 kts | 54° |
| 2026-04-30 14:07 | 31.15851 | 121.81058 | 22 ft | 0 kts | 72° |
| 2026-04-30 14:10 | 31.15860 | 121.81089 | 23 ft | 8 kts | 72° |
| 2026-04-30 14:11 | 31.15864 | 121.81173 | 24 ft | 13 kts | 115° |
| 2026-04-30 14:11 | 31.15829 | 121.81207 | 22 ft | 0 kts | 157° |
| 2026-04-30 14:11 | 31.15828 | 121.81207 | 22 ft | 2 kts | 157° |
| 2026-04-30 14:11 | 31.15568 | 121.81306 | 22 ft | 76 kts | 162° |
| 2026-04-30 14:12 | 31.14862 | 121.81571 | 23 ft | 133 kts | 162° |
| 2026-04-30 14:12 | 31.13830 | 121.81952 | 106 ft | 169 kts | 163° |
| 2026-04-30 14:12 | 31.12733 | 121.82358 | 821 ft | 165 kts | 163° |
| 2026-04-30 14:12 | 31.11644 | 121.82771 | 1513 ft | 165 kts | 164° |
| 2026-04-30 14:13 | 31.10533 | 121.83114 | 2118 ft | 165 kts | 180° |
| 2026-04-30 14:13 | 31.09385 | 121.83181 | 2699 ft | 166 kts | 176° |
| 2026-04-30 14:13 | 31.08208 | 121.83321 | 3062 ft | 182 kts | 177° |
| 2026-04-30 14:13 | 31.06877 | 121.83474 | 3311 ft | 204 kts | 176° |
| 2026-04-30 14:14 | 31.05390 | 121.83643 | 3512 ft | 227 kts | 176° |
| 2026-04-30 14:14 | 31.03730 | 121.83835 | 3803 ft | 252 kts | 175° |
| 2026-04-30 14:14 | 31.01912 | 121.84025 | 4263 ft | 270 kts | 180° |
| 2026-04-30 14:14 | 31.00100 | 121.83492 | 4961 ft | 274 kts | 215° |
| 2026-04-30 14:15 | 30.98843 | 121.81870 | 5655 ft | 273 kts | 248° |
| 2026-04-30 14:15 | 30.98152 | 121.79816 | 5869 ft | 272 kts | 255° |
| 2026-04-30 14:15 | 30.97581 | 121.77724 | 5918 ft | 271 kts | 257° |
| 2026-04-30 14:15 | 30.97047 | 121.75624 | 5912 ft | 270 kts | 257° |
| 2026-04-30 14:16 | 30.96527 | 121.73528 | 5913 ft | 269 kts | 261° |
| 2026-04-30 14:16 | 30.96342 | 121.71389 | 5915 ft | 265 kts | 276° |
| 2026-04-30 14:16 | 30.96648 | 121.69273 | 6542 ft | 265 kts | 287° |
| 2026-04-30 14:16 | 30.97058 | 121.67185 | 7475 ft | 263 kts | 285° |
| 2026-04-30 14:17 | 30.97439 | 121.65105 | 8376 ft | 262 kts | 284° |
| 2026-04-30 14:17 | 30.97807 | 121.63056 | 9259 ft | 262 kts | 284° |